Time;durP1;ratioP1;P1;durP2;ratioP2;P2;SDS_P1;SDS_P2;PMS_P1;PMS_P2;Temp;Humidity;BMP_temperature;BMP_pressure;BME280_temperature;BME280_humidity;BME280_pressure;Samples;Min_cycle;Max_cycle;Signal;HPM_P1;HPM_P2
2022/03/31 00:00:40;;;;;;;81.97;54.20;;;17.30;56.80;;;;;;4993058;28;91189;-36
2022/03/31 00:03:09;;;;;;;80.88;54.35;;;17.30;56.80;;;;;;4994185;28;90897;-34
2022/03/31 00:05:36;;;;;;;81.05;54.35;;;17.30;56.70;;;;;;4992710;28;90662;-38
2022/03/31 00:08:13;;;;;;;82.25;54.58;;;17.30;56.80;;;;;;4992001;28;90353;-37
2022/03/31 00:10:40;;;;;;;81.53;54.15;;;17.30;56.80;;;;;;4988581;28;96120;-38
2022/03/31 00:13:09;;;;;;;80.63;54.25;;;17.20;56.80;;;;;;4992661;28;90282;-38
2022/03/31 00:15:35;;;;;;;80.68;53.92;;;17.20;56.90;;;;;;4993968;28;90309;-37
2022/03/31 00:18:03;;;;;;;79.75;54.08;;;17.20;57.00;;;;;;4986890;28;94741;-37
2022/03/31 00:23:51;;;;;;;80.75;54.42;;;17.20;57.00;;;;;;4996884;28;89741;-35
2022/03/31 00:26:16;;;;;;;79.10;53.67;;;17.20;57.10;;;;;;4994149;28;91490;-35
2022/03/31 00:28:42;;;;;;;82.85;54.05;;;17.20;57.20;;;;;;4992964;28;90823;-37
2022/03/31 00:31:08;;;;;;;81.10;54.00;;;17.20;57.10;;;;;;4997113;28;89617;-33
2022/03/31 00:33:33;;;;;;;80.30;53.90;;;17.20;57.20;;;;;;4990200;28;89990;-35
2022/03/31 00:35:59;;;;;;;80.38;54.03;;;17.20;57.20;;;;;;5001428;28;90291;-33
2022/03/31 00:38:25;;;;;;;79.13;53.78;;;17.20;57.10;;;;;;4993689;28;89904;-35
2022/03/31 00:40:51;;;;;;;78.72;53.72;;;17.10;57.10;;;;;;4984163;28;90497;-34
2022/03/31 00:43:17;;;;;;;79.35;53.25;;;17.10;57.20;;;;;;4988657;28;89683;-36
2022/03/31 00:45:50;;;;;;;80.97;54.22;;;17.10;57.20;;;;;;4990597;27;90468;-34
2022/03/31 00:48:18;;;;;;;79.40;53.50;;;17.10;57.10;;;;;;4993679;28;94329;-34
2022/03/31 00:50:44;;;;;;;79.50;53.40;;;17.10;57.10;;;;;;4993770;28;90488;-37
2022/03/31 00:53:11;;;;;;;79.63;53.45;;;17.10;57.30;;;;;;4995281;28;91030;-35
2022/03/31 00:55:37;;;;;;;81.68;53.75;;;17.10;57.10;;;;;;4988138;28;91808;-35
2022/03/31 00:58:05;;;;;;;80.32;54.05;;;17.10;57.20;;;;;;4998780;28;89536;-39
2022/03/31 01:00:31;;;;;;;80.22;53.90;;;17.00;57.30;;;;;;4994213;28;89781;-34
2022/03/31 01:02:56;;;;;;;81.47;53.90;;;17.10;57.40;;;;;;4999359;28;94942;-34
2022/03/31 01:05:22;;;;;;;79.65;53.75;;;17.00;57.40;;;;;;4991190;28;91078;-34
2022/03/31 01:07:48;;;;;;;81.13;54.35;;;17.00;57.40;;;;;;4996947;28;90235;-34
2022/03/31 01:10:14;;;;;;;79.93;53.20;;;17.00;57.20;;;;;;4981741;28;90370;-35
2022/03/31 01:12:40;;;;;;;80.82;53.63;;;17.00;57.40;;;;;;4987544;28;92687;-37
2022/03/31 01:15:18;;;;;;;80.82;54.28;;;17.00;57.40;;;;;;4991131;28;90409;-35
2022/03/31 01:17:48;;;;;;;80.50;53.75;;;17.00;57.40;;;;;;4997137;28;90481;-35
2022/03/31 01:20:21;;;;;;;80.47;53.80;;;16.90;57.40;;;;;;4997896;28;89752;-34
2022/03/31 01:22:48;;;;;;;80.28;54.30;;;17.00;57.20;;;;;;4997937;28;94766;-35
2022/03/31 01:25:14;;;;;;;82.43;55.00;;;16.90;57.30;;;;;;4992212;28;89884;-35
2022/03/31 01:27:45;;;;;;;81.53;54.47;;;16.90;57.10;;;;;;4992169;28;90368;-37
2022/03/31 01:30:15;;;;;;;81.30;54.92;;;16.90;57.20;;;;;;4998100;28;90133;-39
2022/03/31 01:32:43;;;;;;;81.30;54.05;;;16.90;57.20;;;;;;4993564;28;90726;-35
2022/03/31 01:35:09;;;;;;;80.88;53.85;;;16.90;57.50;;;;;;4991862;28;90570;-35
2022/03/31 01:37:35;;;;;;;80.15;53.95;;;16.90;57.40;;;;;;4992977;28;90139;-32
2022/03/31 01:40:00;;;;;;;79.00;53.40;;;16.90;57.40;;;;;;4996098;28;91148;-38
2022/03/31 01:42:30;;;;;;;81.60;54.65;;;16.90;57.50;;;;;;4974077;28;91776;-33
2022/03/31 01:44:56;;;;;;;80.00;53.35;;;17.00;57.40;;;;;;4996321;28;89605;-35
2022/03/31 01:47:22;;;;;;;80.45;53.80;;;17.00;57.40;;;;;;4994599;28;89723;-36
2022/03/31 01:49:48;;;;;;;80.97;54.10;;;17.10;57.20;;;;;;4997580;28;89426;-35
2022/03/31 01:52:13;;;;;;;80.07;54.08;;;17.00;57.10;;;;;;5001249;28;90658;-38
2022/03/31 01:54:39;;;;;;;82.00;54.33;;;17.10;57.20;;;;;;4993741;28;90646;-39
2022/03/31 01:57:05;;;;;;;80.32;53.60;;;17.10;57.00;;;;;;4976275;28;90973;-37
2022/03/31 01:59:36;;;;;;;80.78;54.22;;;17.10;57.50;;;;;;4987400;28;89087;-34
2022/03/31 02:02:02;;;;;;;80.67;54.37;;;17.20;57.00;;;;;;4993662;28;89953;-35
2022/03/31 02:04:28;;;;;;;79.60;53.90;;;17.20;56.80;;;;;;4994534;28;89673;-37
2022/03/31 02:06:54;;;;;;;80.43;54.53;;;17.20;56.70;;;;;;4998378;28;90444;-33
2022/03/31 02:09:20;;;;;;;79.38;53.85;;;17.10;56.90;;;;;;5002078;28;90085;-37
2022/03/31 02:11:46;;;;;;;80.35;53.90;;;17.20;56.80;;;;;;4984415;28;90061;-35
2022/03/31 02:14:13;;;;;;;80.22;53.95;;;17.20;57.00;;;;;;4989342;28;90051;-36
2022/03/31 02:16:38;;;;;;;80.38;54.33;;;17.10;56.80;;;;;;4992870;28;89891;-34
2022/03/31 02:19:04;;;;;;;82.13;54.75;;;17.10;56.70;;;;;;4991899;28;92388;-33
2022/03/31 02:21:30;;;;;;;82.72;54.63;;;17.10;56.60;;;;;;4991170;28;90564;-37
2022/03/31 02:23:56;;;;;;;81.28;54.08;;;17.10;57.10;;;;;;4995345;28;89862;-35
2022/03/31 02:26:21;;;;;;;79.65;53.38;;;17.10;56.60;;;;;;4989066;28;90789;-41
2022/03/31 02:28:47;;;;;;;80.38;53.95;;;17.10;56.70;;;;;;4995689;27;90039;-35
2022/03/31 02:31:13;;;;;;;82.65;55.55;;;17.10;56.80;;;;;;4993003;28;91080;-34
2022/03/31 02:33:39;;;;;;;79.60;53.15;;;17.10;56.40;;;;;;4993269;28;91187;-38
2022/03/31 02:36:06;;;;;;;79.30;53.25;;;17.10;57.00;;;;;;4994042;28;90003;-34
2022/03/31 02:38:32;;;;;;;78.63;53.15;;;17.10;56.90;;;;;;4997698;28;89660;-36
2022/03/31 02:40:57;;;;;;;78.82;52.83;;;17.10;56.90;;;;;;4989872;28;89764;-34
2022/03/31 02:43:23;;;;;;;79.65;53.13;;;17.00;56.80;;;;;;4986167;28;90358;-34
2022/03/31 02:45:48;;;;;;;79.60;53.53;;;17.00;56.70;;;;;;4999570;28;89930;-36
2022/03/31 02:48:15;;;;;;;78.70;53.15;;;16.90;56.40;;;;;;4996390;28;89123;-36
2022/03/31 02:50:40;;;;;;;78.45;53.00;;;16.90;56.40;;;;;;4995367;28;90001;-39
2022/03/31 02:55:50;;;;;;;78.25;53.15;;;16.80;56.90;;;;;;4990771;28;91076;-36
2022/03/31 02:58:16;;;;;;;78.22;52.83;;;16.80;56.80;;;;;;4987733;28;90654;-37
2022/03/31 03:00:41;;;;;;;78.22;53.00;;;16.80;56.70;;;;;;4999885;28;90805;-37
2022/03/31 03:03:08;;;;;;;77.90;52.63;;;16.70;56.80;;;;;;4994597;27;89923;-36
2022/03/31 03:05:34;;;;;;;79.75;52.85;;;16.70;57.10;;;;;;4997134;28;92708;-33
2022/03/31 03:08:00;;;;;;;78.18;52.40;;;16.70;57.10;;;;;;4994295;28;90804;-34
2022/03/31 03:10:26;;;;;;;76.80;52.75;;;16.60;57.20;;;;;;4984816;28;90851;-43
2022/03/31 03:12:52;;;;;;;77.75;52.80;;;16.60;57.10;;;;;;4981922;28;89532;-37
2022/03/31 03:15:18;;;;;;;76.97;52.50;;;16.60;57.10;;;;;;4992433;28;92130;-34
2022/03/31 03:17:45;;;;;;;77.03;52.67;;;16.60;57.40;;;;;;4990875;28;90331;-35
2022/03/31 03:20:13;;;;;;;78.30;52.60;;;16.60;56.90;;;;;;4993614;28;90860;-46
2022/03/31 03:22:50;;;;;;;76.93;52.60;;;16.50;57.20;;;;;;4991705;28;95991;-41
2022/03/31 03:25:18;;;;;;;77.50;52.00;;;16.50;57.10;;;;;;4992466;28;90333;-36
2022/03/31 03:27:44;;;;;;;77.00;51.97;;;16.50;57.40;;;;;;4991512;28;90260;-36
2022/03/31 03:30:11;;;;;;;76.50;51.95;;;16.50;57.50;;;;;;4992592;28;90483;-36
2022/03/31 03:32:38;;;;;;;76.38;52.20;;;16.40;57.20;;;;;;4989182;27;92536;-33
2022/03/31 03:35:05;;;;;;;77.03;52.42;;;16.30;56.90;;;;;;4989810;28;89904;-37
2022/03/31 03:37:31;;;;;;;76.85;51.85;;;16.20;56.60;;;;;;4991388;28;96274;-33
2022/03/31 03:39:56;;;;;;;76.65;51.75;;;16.10;57.20;;;;;;4991207;28;91996;-38
2022/03/31 03:42:22;;;;;;;74.85;51.40;;;16.10;57.70;;;;;;4979806;28;90287;-35
2022/03/31 03:44:48;;;;;;;75.93;51.83;;;16.10;57.30;;;;;;4984417;28;91116;-34
2022/03/31 03:47:14;;;;;;;75.72;51.30;;;16.10;57.40;;;;;;4996196;28;90155;-38
2022/03/31 03:49:40;;;;;;;75.88;51.30;;;16.20;58.00;;;;;;4986645;28;90219;-35
2022/03/31 03:52:06;;;;;;;75.20;51.05;;;16.20;58.00;;;;;;4997450;28;90025;-38
2022/03/31 03:54:32;;;;;;;76.00;51.25;;;16.30;57.50;;;;;;4991129;28;89843;-39
2022/03/31 03:56:57;;;;;;;74.75;51.08;;;16.30;57.50;;;;;;4991714;28;89867;-36
2022/03/31 03:59:24;;;;;;;74.93;51.08;;;16.40;57.60;;;;;;4991565;28;90115;-37
2022/03/31 04:01:50;;;;;;;74.65;50.83;;;16.60;57.60;;;;;;4978392;28;89441;-36
2022/03/31 04:04:16;;;;;;;74.80;50.92;;;16.60;56.90;;;;;;4997451;28;89615;-35
2022/03/31 04:06:42;;;;;;;74.95;50.80;;;16.70;57.10;;;;;;4992888;28;89804;-37
2022/03/31 04:09:08;;;;;;;74.80;50.70;;;16.80;56.60;;;;;;4992788;28;90320;-37
2022/03/31 04:11:34;;;;;;;74.63;50.63;;;16.90;56.40;;;;;;4989294;28;91189;-38
2022/03/31 04:14:00;;;;;;;74.40;50.40;;;16.90;56.00;;;;;;4982990;28;89744;-49
2022/03/31 04:16:25;;;;;;;73.70;50.63;;;17.00;56.50;;;;;;4993145;28;95616;-35
2022/03/31 04:18:51;;;;;;;74.28;50.63;;;17.10;56.50;;;;;;4994609;28;91510;-35
2022/03/31 04:21:17;;;;;;;74.20;50.40;;;17.10;56.10;;;;;;4996236;28;89696;-38
2022/03/31 04:23:42;;;;;;;72.70;50.08;;;17.30;56.10;;;;;;5001690;28;89699;-34
2022/03/31 04:26:08;;;;;;;73.80;50.63;;;17.30;55.60;;;;;;4996061;28;88841;-34
2022/03/31 04:28:34;;;;;;;74.18;50.35;;;17.40;55.90;;;;;;4998549;28;89817;-35
2022/03/31 04:31:00;;;;;;;75.03;50.55;;;17.50;55.60;;;;;;4989292;28;89807;-35
2022/03/31 04:33:27;;;;;;;74.15;50.33;;;17.50;55.30;;;;;;5000242;28;90662;-31
2022/03/31 04:35:52;;;;;;;73.85;50.45;;;17.50;55.60;;;;;;5002445;28;89591;-34
2022/03/31 04:38:18;;;;;;;74.43;50.55;;;17.60;55.10;;;;;;5003479;28;90384;-39
2022/03/31 04:40:44;;;;;;;74.32;50.67;;;17.60;55.10;;;;;;4994962;28;91620;-36
2022/03/31 04:43:09;;;;;;;73.85;50.17;;;17.70;54.90;;;;;;4985262;28;90311;-38
2022/03/31 04:45:35;;;;;;;74.35;50.90;;;17.70;55.20;;;;;;4989300;28;90428;-33
2022/03/31 04:48:00;;;;;;;74.00;50.47;;;17.80;54.70;;;;;;4989576;28;95721;-38
2022/03/31 04:50:26;;;;;;;73.82;50.20;;;17.80;54.30;;;;;;4984690;28;89135;-34
2022/03/31 04:52:52;;;;;;;73.70;50.28;;;17.80;55.00;;;;;;4999806;28;89306;-34
2022/03/31 04:55:17;;;;;;;73.88;50.28;;;17.90;54.70;;;;;;4988177;28;90753;-35
2022/03/31 04:57:43;;;;;;;73.85;50.42;;;17.90;54.40;;;;;;4994508;28;96387;-39
2022/03/31 05:00:10;;;;;;;75.95;50.70;;;18.00;54.50;;;;;;4986858;28;93166;-38
2022/03/31 05:02:36;;;;;;;74.68;50.47;;;18.00;55.00;;;;;;4988696;28;89587;-36
2022/03/31 05:05:02;;;;;;;75.82;50.58;;;18.00;54.90;;;;;;4988802;28;89690;-35
2022/03/31 05:07:28;;;;;;;78.80;51.30;;;18.00;55.00;;;;;;4987196;28;89700;-34
2022/03/31 05:09:53;;;;;;;75.45;50.67;;;18.00;54.50;;;;;;4983559;28;90259;-41
2022/03/31 05:12:19;;;;;;;76.88;51.15;;;18.00;54.90;;;;;;4980029;28;91518;-32
2022/03/31 05:14:45;;;;;;;80.00;51.45;;;18.00;54.70;;;;;;4991790;28;95949;-35
2022/03/31 05:17:11;;;;;;;75.53;50.95;;;17.90;54.90;;;;;;4992727;28;89798;-35
2022/03/31 05:19:38;;;;;;;77.05;51.25;;;17.90;55.00;;;;;;4987838;28;94243;-33
2022/03/31 05:22:04;;;;;;;75.93;51.10;;;18.00;54.90;;;;;;4998795;28;91177;-49
2022/03/31 05:24:29;;;;;;;77.85;52.13;;;18.00;55.30;;;;;;4997615;28;89965;-33
2022/03/31 05:26:55;;;;;;;76.28;51.00;;;18.00;54.90;;;;;;4986792;28;89912;-39
2022/03/31 05:29:21;;;;;;;77.28;52.33;;;18.00;55.50;;;;;;4989765;28;90316;-34
2022/03/31 05:31:48;;;;;;;78.00;52.53;;;18.00;55.40;;;;;;4989952;28;89922;-36
2022/03/31 05:34:14;;;;;;;77.80;51.67;;;17.90;55.10;;;;;;4996460;28;89959;-36
2022/03/31 05:36:40;;;;;;;76.80;52.05;;;18.00;55.50;;;;;;4988784;28;92308;-36
2022/03/31 05:39:06;;;;;;;77.60;52.88;;;18.00;55.10;;;;;;4993695;28;89121;-35
2022/03/31 05:41:32;;;;;;;76.28;52.55;;;17.90;54.90;;;;;;4993170;28;90330;-39
2022/03/31 05:43:58;;;;;;;77.25;52.67;;;18.00;55.40;;;;;;4984351;28;90249;-41
2022/03/31 05:46:24;;;;;;;83.38;53.92;;;17.90;55.30;;;;;;4991673;28;91219;-39
2022/03/31 05:48:51;;;;;;;82.10;53.53;;;17.90;55.40;;;;;;4989951;28;91472;-36
2022/03/31 05:51:17;;;;;;;83.18;53.63;;;17.90;55.50;;;;;;4984557;28;90009;-35
2022/03/31 05:53:43;;;;;;;83.25;54.05;;;17.90;56.30;;;;;;4983289;28;90417;-36
2022/03/31 05:56:08;;;;;;;83.82;54.17;;;17.90;56.00;;;;;;4994989;28;89816;-37
2022/03/31 05:58:35;;;;;;;80.95;53.85;;;17.90;55.70;;;;;;4995091;28;89935;-35
2022/03/31 06:01:01;;;;;;;84.07;54.70;;;17.80;55.90;;;;;;4992400;28;90063;-37
2022/03/31 06:03:27;;;;;;;87.47;54.95;;;17.80;56.00;;;;;;4990696;28;96901;-37
2022/03/31 06:05:53;;;;;;;83.15;54.17;;;17.80;56.20;;;;;;4985386;28;90430;-36
2022/03/31 06:08:19;;;;;;;84.05;54.25;;;17.90;56.20;;;;;;4995565;28;90282;-38
2022/03/31 06:10:45;;;;;;;84.75;54.72;;;17.80;56.40;;;;;;4987959;28;91036;-36
2022/03/31 06:13:11;;;;;;;82.90;54.25;;;17.70;56.60;;;;;;4989217;28;89513;-35
2022/03/31 06:15:38;;;;;;;82.70;54.63;;;17.80;56.50;;;;;;4995972;28;91013;-38
2022/03/31 06:18:06;;;;;;;82.90;54.45;;;17.80;56.50;;;;;;4990977;28;89965;-35
2022/03/31 06:20:34;;;;;;;83.15;54.55;;;17.80;56.70;;;;;;4991793;28;90216;-38
2022/03/31 06:23:00;;;;;;;80.13;54.53;;;17.80;56.70;;;;;;4993765;28;89231;-36
2022/03/31 06:25:26;;;;;;;85.13;54.42;;;17.80;56.40;;;;;;4994423;28;89904;-37
2022/03/31 06:27:52;;;;;;;84.78;53.95;;;17.70;56.90;;;;;;4985264;28;90963;-36
2022/03/31 06:30:18;;;;;;;82.38;54.67;;;17.90;57.70;;;;;;4989624;28;90913;-39
2022/03/31 06:32:45;;;;;;;82.18;54.42;;;18.10;56.70;;;;;;4988326;27;90972;-35
2022/03/31 06:35:14;;;;;;;82.18;55.00;;;18.20;56.60;;;;;;4982529;28;91029;-35
2022/03/31 06:37:41;;;;;;;82.82;54.63;;;18.30;56.30;;;;;;4989686;28;89623;-34
2022/03/31 06:40:12;;;;;;;81.20;54.05;;;18.40;55.60;;;;;;4988559;28;94012;-40
2022/03/31 06:42:38;;;;;;;84.40;55.05;;;18.30;55.60;;;;;;4986368;28;92540;-37
2022/03/31 06:45:05;;;;;;;80.43;54.35;;;18.40;55.40;;;;;;4985313;28;91044;-36
2022/03/31 06:47:31;;;;;;;83.30;55.75;;;18.30;55.50;;;;;;4969758;28;90758;-38
2022/03/31 06:49:57;;;;;;;83.28;54.80;;;18.30;55.10;;;;;;4991782;28;90238;-43
2022/03/31 06:52:23;;;;;;;82.03;54.05;;;18.30;54.80;;;;;;4976588;28;89310;-37
2022/03/31 06:54:48;;;;;;;83.88;54.70;;;18.30;55.40;;;;;;4985837;28;91668;-39
2022/03/31 06:57:14;;;;;;;80.13;53.83;;;18.20;54.60;;;;;;4986269;28;90768;-40
2022/03/31 06:59:40;;;;;;;79.70;53.92;;;18.20;54.70;;;;;;4989350;28;90415;-41
2022/03/31 07:02:06;;;;;;;81.10;53.92;;;18.10;54.60;;;;;;4993954;28;90908;-41
2022/03/31 07:04:31;;;;;;;81.57;54.00;;;18.10;54.90;;;;;;4991213;28;96177;-41
2022/03/31 07:06:57;;;;;;;80.00;54.25;;;18.00;54.80;;;;;;4986398;28;97084;-35
2022/03/31 07:09:23;;;;;;;80.40;53.83;;;18.00;54.90;;;;;;4982671;28;90628;-39
2022/03/31 07:11:48;;;;;;;78.13;53.33;;;17.90;55.00;;;;;;4982746;28;90329;-39
2022/03/31 07:14:14;;;;;;;81.47;53.53;;;17.90;55.10;;;;;;4981605;28;92550;-40
2022/03/31 07:16:40;;;;;;;79.75;53.63;;;18.00;55.00;;;;;;4986055;28;89069;-38
2022/03/31 07:19:05;;;;;;;79.28;53.03;;;17.90;54.60;;;;;;4988444;28;89897;-39
2022/03/31 07:21:32;;;;;;;77.70;52.85;;;18.00;55.10;;;;;;4975832;28;92279;-41
2022/03/31 07:23:57;;;;;;;80.40;53.33;;;18.10;54.70;;;;;;4987379;28;92317;-37
2022/03/31 07:26:23;;;;;;;79.75;52.80;;;18.30;54.60;;;;;;4990227;28;90808;-38
2022/03/31 07:28:49;;;;;;;80.57;52.92;;;18.40;54.20;;;;;;4993527;28;89864;-40
2022/03/31 07:31:14;;;;;;;77.65;53.05;;;18.40;54.10;;;;;;4998734;28;89797;-36
2022/03/31 07:33:40;;;;;;;79.85;53.25;;;18.30;53.60;;;;;;4993780;28;90598;-34
2022/03/31 07:36:07;;;;;;;79.82;53.13;;;18.40;53.80;;;;;;4991090;28;91134;-42
2022/03/31 07:38:33;;;;;;;79.35;52.58;;;18.40;54.00;;;;;;4982087;28;90338;-38
2022/03/31 07:40:58;;;;;;;78.45;52.35;;;18.50;53.80;;;;;;4989927;28;89057;-39
2022/03/31 07:43:25;;;;;;;79.10;52.28;;;18.50;53.60;;;;;;4983354;28;90184;-37
2022/03/31 07:45:51;;;;;;;78.95;52.72;;;18.50;53.50;;;;;;4992170;28;89967;-45
2022/03/31 07:48:18;;;;;;;78.80;52.47;;;18.40;53.10;;;;;;4987992;28;93324;-36
2022/03/31 07:50:44;;;;;;;78.18;52.72;;;18.40;53.50;;;;;;4984399;28;89442;-39
2022/03/31 07:53:11;;;;;;;78.68;52.35;;;18.30;53.40;;;;;;4989767;28;90365;-39
2022/03/31 07:55:37;;;;;;;79.68;52.75;;;18.40;53.40;;;;;;4992840;28;91726;-40
2022/03/31 07:58:03;;;;;;;80.10;52.55;;;18.40;53.60;;;;;;4995347;28;90168;-39
2022/03/31 08:00:29;;;;;;;80.03;52.67;;;18.30;53.40;;;;;;5000069;28;90285;-40
2022/03/31 08:02:57;;;;;;;78.93;52.35;;;18.40;53.60;;;;;;4977998;28;95264;-42
2022/03/31 08:05:24;;;;;;;79.07;52.65;;;18.50;53.60;;;;;;4993240;28;96072;-37
2022/03/31 08:07:51;;;;;;;78.90;52.08;;;18.50;53.30;;;;;;4992888;28;94862;-36
2022/03/31 08:10:18;;;;;;;78.00;52.50;;;18.60;53.20;;;;;;4992027;28;95015;-40
2022/03/31 08:12:45;;;;;;;79.57;52.67;;;18.70;53.20;;;;;;4981780;28;97351;-42
2022/03/31 08:15:14;;;;;;;78.97;52.42;;;18.70;52.90;;;;;;4979778;28;95670;-38
2022/03/31 08:17:39;;;;;;;78.68;52.30;;;18.80;52.70;;;;;;4984479;28;97734;-39
2022/03/31 08:20:11;;;;;;;78.78;52.22;;;18.80;52.80;;;;;;4983075;28;95960;-36
2022/03/31 08:22:37;;;;;;;;;;;18.90;52.70;;;;;;4983077;28;95608;-41
2022/03/31 08:25:04;;;;;;;78.88;52.25;;;18.90;52.50;;;;;;4983489;28;95147;-43
2022/03/31 08:27:32;;;;;;;79.40;51.92;;;19.10;52.50;;;;;;4989580;28;95208;-42
2022/03/31 08:29:57;;;;;;;79.20;52.30;;;19.10;52.20;;;;;;4998589;28;95878;-40
2022/03/31 08:32:23;;;;;;;78.60;51.92;;;19.10;52.20;;;;;;4994321;28;96122;-40
2022/03/31 08:34:49;;;;;;;78.80;52.35;;;19.00;52.20;;;;;;4989687;28;94934;-49
2022/03/31 08:37:15;;;;;;;79.80;52.20;;;19.10;52.20;;;;;;5007439;28;96033;-41
2022/03/31 08:39:40;;;;;;;78.88;52.38;;;19.10;51.80;;;;;;4980711;28;95026;-40
2022/03/31 08:42:06;;;;;;;79.90;52.20;;;19.10;52.10;;;;;;4986532;28;95297;-40
2022/03/31 08:44:34;;;;;;;79.03;51.72;;;19.10;51.90;;;;;;4977357;28;98556;-37
2022/03/31 08:47:00;;;;;;;79.32;51.97;;;19.00;51.70;;;;;;4997366;28;95008;-38
2022/03/31 08:49:31;;;;;;;78.38;52.13;;;19.00;51.80;;;;;;4994619;28;94925;-38
2022/03/31 08:51:57;;;;;;;78.15;52.00;;;18.80;50.80;;;;;;4987699;28;95241;-40
2022/03/31 08:54:22;;;;;;;77.70;51.78;;;18.70;52.20;;;;;;4987177;28;95237;-40
2022/03/31 08:56:48;;;;;;;78.72;51.95;;;18.90;52.00;;;;;;4979750;28;100630;-40
2022/03/31 08:59:13;;;;;;;77.93;51.55;;;18.90;52.00;;;;;;4991955;28;94730;-39
2022/03/31 09:01:39;;;;;;;78.82;51.78;;;18.90;51.90;;;;;;4990834;28;96415;-39
2022/03/31 09:04:06;;;;;;;79.00;51.80;;;18.80;52.10;;;;;;4996139;28;94969;-38
2022/03/31 09:06:32;;;;;;;78.97;51.97;;;18.90;51.80;;;;;;4997582;28;94815;-40
2022/03/31 09:09:00;;;;;;;78.78;51.85;;;18.90;52.00;;;;;;4984837;28;95614;-38
2022/03/31 09:11:29;;;;;;;78.85;51.47;;;18.80;51.90;;;;;;4984537;28;95615;-37
2022/03/31 09:14:05;;;;;;;79.30;51.63;;;18.80;51.80;;;;;;4987073;28;95045;-40
2022/03/31 09:16:36;;;;;;;78.13;51.70;;;18.80;52.10;;;;;;4991352;28;97607;-37
2022/03/31 09:19:09;;;;;;;79.82;51.75;;;18.70;51.60;;;;;;4986276;28;96919;-39
2022/03/31 09:21:51;;;;;;;79.63;51.83;;;18.80;51.90;;;;;;4986799;28;95929;-39
2022/03/31 09:24:20;;;;;;;78.53;51.78;;;18.70;51.50;;;;;;4993407;28;94768;-39
2022/03/31 09:26:50;;;;;;;78.15;51.72;;;18.70;52.00;;;;;;5003860;27;96092;-42
2022/03/31 09:29:17;;;;;;;79.03;52.20;;;18.70;52.30;;;;;;4990224;28;95020;-43
2022/03/31 09:31:43;;;;;;;78.93;52.03;;;18.90;52.00;;;;;;4986330;28;97615;-40
2022/03/31 09:34:09;;;;;;;77.88;51.47;;;19.00;51.70;;;;;;4987339;28;95170;-39
2022/03/31 09:36:39;;;;;;;78.07;51.45;;;19.00;51.70;;;;;;4991935;28;94844;-41
2022/03/31 09:39:13;;;;;;;80.65;52.15;;;19.10;51.60;;;;;;4998968;28;95109;-42
2022/03/31 09:41:41;;;;;;;78.70;51.63;;;19.10;51.40;;;;;;4983713;28;95974;-39
2022/03/31 09:44:18;;;;;;;79.03;51.90;;;19.10;51.00;;;;;;4982945;28;94512;-41
2022/03/31 09:46:46;;;;;;;80.78;51.78;;;19.20;51.20;;;;;;4985215;27;95610;-39
2022/03/31 09:49:23;;;;;;;79.15;51.60;;;19.20;50.50;;;;;;4985008;28;96059;-40
2022/03/31 09:51:54;;;;;;;79.60;51.90;;;19.30;50.90;;;;;;4970795;28;96561;-38
2022/03/31 09:54:25;;;;;;;79.88;51.95;;;19.30;50.70;;;;;;4979746;28;95969;-39
2022/03/31 09:56:51;;;;;;;78.35;51.45;;;19.30;50.60;;;;;;4983019;28;95075;-36
2022/03/31 09:59:17;;;;;;;77.97;51.33;;;19.30;51.10;;;;;;4989139;28;94913;-40
2022/03/31 10:01:44;;;;;;;78.80;51.55;;;19.30;51.10;;;;;;4977789;28;96344;-39
2022/03/31 10:04:11;;;;;;;78.72;51.45;;;19.20;51.00;;;;;;4994575;27;96248;-39
2022/03/31 10:06:40;;;;;;;77.68;51.33;;;19.20;50.80;;;;;;4988504;28;94464;-43
2022/03/31 10:09:08;;;;;;;80.05;51.55;;;19.20;51.00;;;;;;4981246;28;94406;-38
2022/03/31 10:11:40;;;;;;;77.53;51.25;;;19.20;51.20;;;;;;4980430;28;96006;-41
2022/03/31 10:14:44;;;;;;;77.80;51.13;;;19.10;51.30;;;;;;4970999;28;96568;-38
2022/03/31 10:17:11;;;;;;;77.07;51.13;;;19.10;51.30;;;;;;4985947;28;96270;-39
2022/03/31 10:19:39;;;;;;;76.82;50.90;;;19.00;51.30;;;;;;4988971;28;96563;-38
2022/03/31 10:22:08;;;;;;;79.40;51.10;;;19.00;51.40;;;;;;4989863;28;95385;-39
2022/03/31 10:24:52;;;;;;;77.22;51.05;;;18.90;50.80;;;;;;4983323;28;96222;-40
2022/03/31 10:27:28;;;;;;;78.95;51.30;;;19.00;51.40;;;;;;4990777;28;96115;-39
2022/03/31 10:30:06;;;;;;;80.90;51.85;;;19.00;50.90;;;;;;4977478;28;96253;-38
2022/03/31 10:32:31;;;;;;;81.15;51.53;;;19.00;50.30;;;;;;4978467;28;96112;-38
2022/03/31 10:34:57;;;;;;;78.70;51.42;;;19.00;50.30;;;;;;4980445;28;95942;-41
2022/03/31 10:37:34;;;;;;;78.38;51.35;;;19.00;50.90;;;;;;4985394;28;94909;-39
2022/03/31 10:40:03;;;;;;;78.10;51.42;;;18.80;49.90;;;;;;4981705;28;95032;-39
2022/03/31 10:42:29;;;;;;;77.70;51.10;;;18.70;51.10;;;;;;4986008;28;96947;-37
2022/03/31 10:45:06;;;;;;;77.85;51.03;;;18.60;51.30;;;;;;4969966;28;95463;-44
2022/03/31 10:47:34;;;;;;;77.45;51.08;;;18.60;51.80;;;;;;4982921;28;96258;-40
2022/03/31 10:49:59;;;;;;;77.07;50.60;;;18.60;51.90;;;;;;4986963;28;95258;-40
2022/03/31 10:52:27;;;;;;;78.50;51.08;;;18.60;51.80;;;;;;4984114;28;96477;-42
2022/03/31 10:55:08;;;;;;;77.57;51.05;;;18.70;51.80;;;;;;4973919;28;96969;-42
2022/03/31 10:57:40;;;;;;;79.33;51.30;;;18.80;51.40;;;;;;4984702;28;95082;-41
2022/03/31 11:00:08;;;;;;;77.75;50.97;;;18.80;51.20;;;;;;4983795;28;94539;-40
2022/03/31 11:02:40;;;;;;;79.28;51.42;;;19.00;51.30;;;;;;4983174;28;95872;-36
2022/03/31 11:05:07;;;;;;;79.85;51.33;;;19.00;50.80;;;;;;4981911;28;95381;-36
2022/03/31 11:07:32;;;;;;;80.32;51.45;;;19.00;50.70;;;;;;4995993;28;96830;-39
2022/03/31 11:10:11;;;;;;;77.80;51.17;;;19.10;50.80;;;;;;4979827;28;96111;-40
2022/03/31 11:12:38;;;;;;;79.47;51.13;;;19.10;50.40;;;;;;4987776;28;96164;-38
2022/03/31 11:15:12;;;;;;;79.68;51.35;;;19.10;50.10;;;;;;4980459;27;95461;-40
2022/03/31 11:17:41;;;;;;;77.45;51.22;;;19.10;50.40;;;;;;4987098;28;95992;-40
2022/03/31 11:20:17;;;;;;;78.57;50.95;;;19.20;50.40;;;;;;4986972;28;95989;-44
2022/03/31 11:22:51;;;;;;;78.15;51.10;;;19.20;50.40;;;;;;4988182;28;95279;-37
2022/03/31 11:25:19;;;;;;;78.20;51.15;;;19.20;50.10;;;;;;4991116;28;95908;-39
2022/03/31 11:27:46;;;;;;;79.13;51.30;;;19.20;49.90;;;;;;4987905;28;100184;-40
2022/03/31 11:30:29;;;;;;;77.75;51.05;;;19.10;49.90;;;;;;4988884;28;96101;-39
2022/03/31 11:32:56;;;;;;;80.55;51.05;;;19.10;50.30;;;;;;4988654;28;97296;-37
2022/03/31 11:35:24;;;;;;;78.85;51.05;;;19.20;50.00;;;;;;4995663;28;95977;-39
2022/03/31 11:38:00;;;;;;;79.70;51.15;;;19.20;50.20;;;;;;4990154;28;97441;-41
2022/03/31 11:40:46;;;;;;;78.65;51.08;;;19.20;49.90;;;;;;4986181;28;94808;-40
2022/03/31 11:43:14;;;;;;;77.72;50.78;;;19.20;50.30;;;;;;4992710;28;94965;-40
2022/03/31 11:45:45;;;;;;;78.07;50.97;;;19.10;49.30;;;;;;4991725;28;95792;-38
2022/03/31 11:48:18;;;;;;;76.28;50.40;;;19.00;50.30;;;;;;4988097;28;95597;-42
2022/03/31 11:50:58;;;;;;;78.20;50.58;;;18.90;50.00;;;;;;4989188;28;94863;-40
2022/03/31 11:53:25;;;;;;;77.00;50.50;;;18.80;49.30;;;;;;4989053;28;95310;-41
2022/03/31 11:55:59;;;;;;;77.20;50.85;;;18.70;49.30;;;;;;4986513;28;96256;-40
2022/03/31 11:58:26;;;;;;;77.55;50.70;;;18.60;49.40;;;;;;4984772;28;97017;-38
2022/03/31 12:00:51;;;;;;;78.40;51.00;;;18.60;50.60;;;;;;4989370;28;95325;-41
2022/03/31 12:03:17;;;;;;;77.63;50.70;;;18.70;50.10;;;;;;4985364;28;95959;-36
2022/03/31 12:05:54;;;;;;;76.93;50.45;;;18.70;50.10;;;;;;4980264;28;96155;-36
2022/03/31 12:08:20;;;;;;;77.35;50.75;;;18.70;49.90;;;;;;4982749;28;96233;-43
2022/03/31 12:10:50;;;;;;;79.45;50.97;;;18.80;50.10;;;;;;4982919;28;95196;-42
2022/03/31 12:13:15;;;;;;;78.00;50.92;;;18.70;50.00;;;;;;4982572;28;98545;-41
2022/03/31 12:15:41;;;;;;;77.65;50.75;;;18.70;50.30;;;;;;4978092;28;94655;-41
2022/03/31 12:18:12;;;;;;;77.47;50.95;;;18.80;49.40;;;;;;4983757;28;101874;-48
2022/03/31 12:20:38;;;;;;;76.63;50.72;;;18.80;50.10;;;;;;4968029;28;102441;-46
2022/03/31 12:23:19;;;;;;;76.88;50.50;;;18.80;49.50;;;;;;4959989;28;96878;-38
2022/03/31 12:25:45;;;;;;;;;;;18.80;50.00;;;;;;4966598;28;96685;-40
2022/03/31 12:28:11;;;;;;;76.43;50.22;;;18.80;49.70;;;;;;4961645;28;95584;-42
2022/03/31 12:30:40;;;;;;;76.43;50.22;;;18.80;49.50;;;;;;4963042;28;95328;-38
2022/03/31 12:33:30;;;;;;;76.60;50.35;;;18.80;49.60;;;;;;4959879;28;95338;-36
2022/03/31 12:36:00;;;;;;;76.72;50.72;;;18.70;49.30;;;;;;4961463;28;96456;-40